sensor_id;sensor_type;location;lat;lon;timestamp;pressure;altitude;pressure_sealevel;temperature;humidity
77360;BME280;66426;51.454;7.266;2023-05-07T00:00:52;100165.34;;;13.84;89.95
77360;BME280;66426;51.454;7.266;2023-05-07T00:01:54;100159.91;;;13.84;89.76
77360;BME280;66426;51.454;7.266;2023-05-07T00:02:56;100160.28;;;13.92;89.19
77360;BME280;66426;51.454;7.266;2023-05-07T00:03:57;100164.84;;;13.92;89.22
77360;BME280;66426;51.454;7.266;2023-05-07T00:04:58;100159.72;;;13.87;88.85
77360;BME280;66426;51.454;7.266;2023-05-07T00:05:59;100163.69;;;13.81;89.30
77360;BME280;66426;51.454;7.266;2023-05-07T00:07:00;100161.66;;;13.85;89.46
77360;BME280;66426;51.454;7.266;2023-05-07T00:08:01;100166.31;;;13.83;89.72
77360;BME280;66426;51.454;7.266;2023-05-07T00:09:02;100160.91;;;13.83;89.50
77360;BME280;66426;51.454;7.266;2023-05-07T00:10:05;100167.84;;;13.87;89.50
77360;BME280;66426;51.454;7.266;2023-05-07T00:11:07;100174.63;;;13.80;89.62
77360;BME280;66426;51.454;7.266;2023-05-07T00:12:09;100167.97;;;13.86;89.84
77360;BME280;66426;51.454;7.266;2023-05-07T00:13:10;100170.63;;;14.00;89.52
77360;BME280;66426;51.454;7.266;2023-05-07T00:14:11;100165.41;;;13.97;89.42
77360;BME280;66426;51.454;7.266;2023-05-07T00:15:12;100168.03;;;13.84;89.55
77360;BME280;66426;51.454;7.266;2023-05-07T00:16:13;100170.75;;;13.84;89.46
77360;BME280;66426;51.454;7.266;2023-05-07T00:17:14;100179.38;;;13.76;89.50
77360;BME280;66426;51.454;7.266;2023-05-07T00:18:15;100171.75;;;13.69;90.24
77360;BME280;66426;51.454;7.266;2023-05-07T00:19:16;100169.03;;;13.69;90.33
77360;BME280;66426;51.454;7.266;2023-05-07T00:20:17;100170.59;;;13.73;90.43
77360;BME280;66426;51.454;7.266;2023-05-07T00:21:18;100169.03;;;13.83;90.10
77360;BME280;66426;51.454;7.266;2023-05-07T00:22:19;100168.03;;;13.98;89.94
77360;BME280;66426;51.454;7.266;2023-05-07T00:23:20;100173.72;;;14.08;89.33
77360;BME280;66426;51.454;7.266;2023-05-07T00:24:20;100172.66;;;14.11;89.02
77360;BME280;66426;51.454;7.266;2023-05-07T00:25:21;100164.56;;;13.96;89.36
77360;BME280;66426;51.454;7.266;2023-05-07T00:26:22;100168.25;;;13.95;89.66
77360;BME280;66426;51.454;7.266;2023-05-07T00:27:25;100169.78;;;13.85;89.71
77360;BME280;66426;51.454;7.266;2023-05-07T00:28:25;100169.91;;;13.84;89.86
77360;BME280;66426;51.454;7.266;2023-05-07T00:29:26;100168.34;;;13.79;90.40
77360;BME280;66426;51.454;7.266;2023-05-07T00:30:27;100178.22;;;13.80;90.20
77360;BME280;66426;51.454;7.266;2023-05-07T00:31:28;100168.91;;;13.85;90.36
77360;BME280;66426;51.454;7.266;2023-05-07T00:32:29;100170.38;;;13.76;90.27
77360;BME280;66426;51.454;7.266;2023-05-07T00:33:30;100171.34;;;13.75;90.76
77360;BME280;66426;51.454;7.266;2023-05-07T00:34:31;100172.22;;;13.75;90.79
77360;BME280;66426;51.454;7.266;2023-05-07T00:35:32;100164.75;;;13.79;90.71
77360;BME280;66426;51.454;7.266;2023-05-07T00:36:32;100163.63;;;13.83;90.14
77360;BME280;66426;51.454;7.266;2023-05-07T00:37:33;100167.47;;;13.93;90.23
77360;BME280;66426;51.454;7.266;2023-05-07T00:38:34;100171.91;;;13.94;89.77
77360;BME280;66426;51.454;7.266;2023-05-07T00:39:35;100175.88;;;13.89;89.78
77360;BME280;66426;51.454;7.266;2023-05-07T00:40:36;100174.63;;;13.80;89.96
77360;BME280;66426;51.454;7.266;2023-05-07T00:41:37;100172.88;;;13.65;90.80
77360;BME280;66426;51.454;7.266;2023-05-07T00:42:40;100169.81;;;13.56;91.58
77360;BME280;66426;51.454;7.266;2023-05-07T00:43:40;100164.19;;;13.59;91.40
77360;BME280;66426;51.454;7.266;2023-05-07T00:44:41;100169.41;;;13.63;91.50
77360;BME280;66426;51.454;7.266;2023-05-07T00:45:42;100167.88;;;13.73;91.43
77360;BME280;66426;51.454;7.266;2023-05-07T00:46:43;100161.97;;;13.80;90.92
77360;BME280;66426;51.454;7.266;2023-05-07T00:47:45;100167.84;;;13.87;90.55
77360;BME280;66426;51.454;7.266;2023-05-07T00:48:47;100160.69;;;14.00;90.31
77360;BME280;66426;51.454;7.266;2023-05-07T00:49:48;100163.41;;;14.00;90.04
77360;BME280;66426;51.454;7.266;2023-05-07T00:50:49;100160.22;;;13.94;90.02
77360;BME280;66426;51.454;7.266;2023-05-07T00:51:51;100158.94;;;13.99;89.90
77360;BME280;66426;51.454;7.266;2023-05-07T00:52:52;100154.09;;;14.05;89.86
77360;BME280;66426;51.454;7.266;2023-05-07T00:53:53;100156.63;;;13.93;90.02
77360;BME280;66426;51.454;7.266;2023-05-07T00:54:54;100156.91;;;13.89;90.61
77360;BME280;66426;51.454;7.266;2023-05-07T00:55:56;100160.69;;;13.86;90.82
77360;BME280;66426;51.454;7.266;2023-05-07T00:56:57;100149.38;;;13.79;90.91
77360;BME280;66426;51.454;7.266;2023-05-07T00:57:59;100155.97;;;13.75;90.96
77360;BME280;66426;51.454;7.266;2023-05-07T00:59:01;100147.94;;;13.74;91.55
77360;BME280;66426;51.454;7.266;2023-05-07T01:00:03;100154.50;;;13.70;91.59
77360;BME280;66426;51.454;7.266;2023-05-07T01:01:04;100154.44;;;13.71;91.71
77360;BME280;66426;51.454;7.266;2023-05-07T01:02:05;100157.22;;;13.70;91.89
77360;BME280;66426;51.454;7.266;2023-05-07T01:03:06;100151.63;;;13.73;91.85
77360;BME280;66426;51.454;7.266;2023-05-07T01:04:07;100147.94;;;13.74;91.81
77360;BME280;66426;51.454;7.266;2023-05-07T01:05:10;100148.22;;;13.69;91.56
77360;BME280;66426;51.454;7.266;2023-05-07T01:06:13;100151.94;;;13.68;91.67
77360;BME280;66426;51.454;7.266;2023-05-07T01:07:17;100150.38;;;13.64;92.20
77360;BME280;66426;51.454;7.266;2023-05-07T01:08:18;100142.03;;;13.67;92.14
77360;BME280;66426;51.454;7.266;2023-05-07T01:09:19;100156.75;;;13.63;91.90
77360;BME280;66426;51.454;7.266;2023-05-07T01:10:22;100148.63;;;13.63;92.13
77360;BME280;66426;51.454;7.266;2023-05-07T01:11:23;100151.34;;;13.63;92.24
77360;BME280;66426;51.454;7.266;2023-05-07T01:12:24;100146.69;;;13.65;92.23
77360;BME280;66426;51.454;7.266;2023-05-07T01:13:27;100155.00;;;13.62;91.81
77360;BME280;66426;51.454;7.266;2023-05-07T01:14:29;100151.16;;;13.66;91.95
77360;BME280;66426;51.454;7.266;2023-05-07T01:15:31;100146.59;;;13.67;92.37
77360;BME280;66426;51.454;7.266;2023-05-07T01:16:32;100153.06;;;13.64;91.93
77360;BME280;66426;51.454;7.266;2023-05-07T01:17:34;100157.50;;;13.65;92.06
77360;BME280;66426;51.454;7.266;2023-05-07T01:18:35;100148.22;;;13.69;92.19
77360;BME280;66426;51.454;7.266;2023-05-07T01:19:36;100152.00;;;13.67;91.87
77360;BME280;66426;51.454;7.266;2023-05-07T01:20:37;100152.59;;;13.72;92.08
77360;BME280;66426;51.454;7.266;2023-05-07T01:21:38;100144.66;;;13.69;91.71
77360;BME280;66426;51.454;7.266;2023-05-07T01:22:40;100146.22;;;13.73;91.66
77360;BME280;66426;51.454;7.266;2023-05-07T01:23:44;100142.59;;;13.87;91.44
77360;BME280;66426;51.454;7.266;2023-05-07T01:24:46;100150.06;;;13.83;91.44
77360;BME280;66426;51.454;7.266;2023-05-07T01:25:51;100154.91;;;13.78;91.18
77360;BME280;66426;51.454;7.266;2023-05-07T01:26:52;100150.72;;;13.87;91.13
77360;BME280;66426;51.454;7.266;2023-05-07T01:27:53;100146.75;;;13.92;90.82
77360;BME280;66426;51.454;7.266;2023-05-07T01:28:54;100153.81;;;13.95;90.68
77360;BME280;66426;51.454;7.266;2023-05-07T01:29:55;100150.44;;;13.91;90.30
77360;BME280;66426;51.454;7.266;2023-05-07T01:31:01;100150.16;;;13.81;91.19
77360;BME280;66426;51.454;7.266;2023-05-07T01:32:03;100151.31;;;13.77;91.04
77360;BME280;66426;51.454;7.266;2023-05-07T01:33:08;100156.06;;;13.74;91.26
77360;BME280;66426;51.454;7.266;2023-05-07T01:34:11;100152.00;;;13.67;91.65
77360;BME280;66426;51.454;7.266;2023-05-07T01:35:18;100159.16;;;13.68;91.67
77360;BME280;66426;51.454;7.266;2023-05-07T01:36:20;100154.13;;;13.62;92.12
77360;BME280;66426;51.454;7.266;2023-05-07T01:37:22;100153.06;;;13.64;92.27
77360;BME280;66426;51.454;7.266;2023-05-07T01:38:24;100147.56;;;13.66;92.20
77360;BME280;66426;51.454;7.266;2023-05-07T01:39:27;100149.59;;;13.62;92.10
77360;BME280;66426;51.454;7.266;2023-05-07T01:40:29;100139.13;;;13.70;91.96
77360;BME280;66426;51.454;7.266;2023-05-07T01:41:31;100154.13;;;13.76;91.89
77360;BME280;66426;51.454;7.266;2023-05-07T01:42:31;100153.06;;;13.64;92.09
77360;BME280;66426;51.454;7.266;2023-05-07T01:43:33;100145.72;;;13.66;92.40
77360;BME280;66426;51.454;7.266;2023-05-07T01:44:34;100146.31;;;13.71;92.04
77360;BME280;66426;51.454;7.266;2023-05-07T01:45:35;100140.41;;;13.65;92.21
77360;BME280;66426;51.454;7.266;2023-05-07T01:46:36;100150.06;;;13.69;92.18
77360;BME280;66426;51.454;7.266;2023-05-07T01:47:38;100152.50;;;13.59;92.72
77360;BME280;66426;51.454;7.266;2023-05-07T01:48:40;100148.34;;;13.53;93.12
77360;BME280;66426;51.454;7.266;2023-05-07T01:49:41;100152.78;;;13.54;93.25
77360;BME280;66426;51.454;7.266;2023-05-07T01:50:43;100152.28;;;13.62;92.83
77360;BME280;66426;51.454;7.266;2023-05-07T01:51:44;100150.56;;;13.61;92.91
77360;BME280;66426;51.454;7.266;2023-05-07T01:52:46;100149.38;;;13.65;92.43
77360;BME280;66426;51.454;7.266;2023-05-07T01:53:49;100157.22;;;13.70;92.07
77360;BME280;66426;51.454;7.266;2023-05-07T01:54:51;100157.41;;;13.81;91.75
77360;BME280;66426;51.454;7.266;2023-05-07T01:55:52;100152.00;;;13.81;91.68
77360;BME280;66426;51.454;7.266;2023-05-07T01:56:53;100146.78;;;13.78;91.67
77360;BME280;66426;51.454;7.266;2023-05-07T01:57:54;100148.59;;;13.77;91.44
77360;BME280;66426;51.454;7.266;2023-05-07T01:58:55;100149.38;;;13.79;91.49
77360;BME280;66426;51.454;7.266;2023-05-07T01:59:56;100145.91;;;13.77;91.33
77360;BME280;66426;51.454;7.266;2023-05-07T02:00:57;100152.94;;;13.80;91.53
77360;BME280;66426;51.454;7.266;2023-05-07T02:01:57;100148.94;;;13.73;91.99
77360;BME280;66426;51.454;7.266;2023-05-07T02:02:58;100155.69;;;13.66;92.30
77360;BME280;66426;51.454;7.266;2023-05-07T02:03:59;100149.88;;;13.57;92.47
77360;BME280;66426;51.454;7.266;2023-05-07T02:05:00;100156.06;;;13.59;92.63
77360;BME280;66426;51.454;7.266;2023-05-07T02:06:02;100152.59;;;13.57;93.34
77360;BME280;66426;51.454;7.266;2023-05-07T02:07:03;100150.28;;;13.66;92.94
77360;BME280;66426;51.454;7.266;2023-05-07T02:08:04;100155.09;;;13.46;92.87
77360;BME280;66426;51.454;7.266;2023-05-07T02:09:06;100149.78;;;13.45;93.39
77360;BME280;66426;51.454;7.266;2023-05-07T02:10:09;100148.72;;;13.47;93.73
77360;BME280;66426;51.454;7.266;2023-05-07T02:11:10;100147.06;;;13.45;93.34
77360;BME280;66426;51.454;7.266;2023-05-07T02:12:11;100143.31;;;13.47;93.75
77360;BME280;66426;51.454;7.266;2023-05-07T02:13:12;100146.00;;;13.47;93.63
77360;BME280;66426;51.454;7.266;2023-05-07T02:14:13;100142.44;;;13.47;93.75
77360;BME280;66426;51.454;7.266;2023-05-07T02:15:14;100143.41;;;13.46;93.76
77360;BME280;66426;51.454;7.266;2023-05-07T02:16:15;100147.84;;;13.47;93.66
77360;BME280;66426;51.454;7.266;2023-05-07T02:17:16;100146.88;;;13.48;93.57
77360;BME280;66426;51.454;7.266;2023-05-07T02:18:16;100141.78;;;13.43;93.61
77360;BME280;66426;51.454;7.266;2023-05-07T02:19:17;100143.69;;;13.41;93.66
77360;BME280;66426;51.454;7.266;2023-05-07T02:20:18;100138.28;;;13.41;93.94
77360;BME280;66426;51.454;7.266;2023-05-07T02:21:19;100148.34;;;13.39;94.28
77360;BME280;66426;51.454;7.266;2023-05-07T02:22:20;100146.59;;;13.38;94.13
77360;BME280;66426;51.454;7.266;2023-05-07T02:23:21;100138.50;;;13.38;94.15
77360;BME280;66426;51.454;7.266;2023-05-07T02:24:23;100144.28;;;13.32;94.21
77360;BME280;66426;51.454;7.266;2023-05-07T02:25:24;100141.38;;;13.35;94.38
77360;BME280;66426;51.454;7.266;2023-05-07T02:26:25;100138.78;;;13.33;94.45
77360;BME280;66426;51.454;7.266;2023-05-07T02:27:26;100136.06;;;13.33;94.55
77360;BME280;66426;51.454;7.266;2023-05-07T02:28:27;100141.47;;;13.33;94.65
77360;BME280;66426;51.454;7.266;2023-05-07T02:29:28;100139.44;;;13.37;94.64
77360;BME280;66426;51.454;7.266;2023-05-07T02:30:29;100134.88;;;13.37;94.55
77360;BME280;66426;51.454;7.266;2023-05-07T02:31:30;100133.81;;;13.40;94.46
77360;BME280;66426;51.454;7.266;2023-05-07T02:32:31;100133.16;;;13.36;94.42
77360;BME280;66426;51.454;7.266;2023-05-07T02:33:32;100144.06;;;13.35;94.53
77360;BME280;66426;51.454;7.266;2023-05-07T02:34:32;100140.69;;;13.31;94.56
77360;BME280;66426;51.454;7.266;2023-05-07T02:35:33;100140.69;;;13.31;94.49
77360;BME280;66426;51.454;7.266;2023-05-07T02:36:34;100141.66;;;13.30;94.67
77360;BME280;66426;51.454;7.266;2023-05-07T02:37:35;100147.47;;;13.38;94.59
77360;BME280;66426;51.454;7.266;2023-05-07T02:38:36;100145.72;;;13.37;94.55
77360;BME280;66426;51.454;7.266;2023-05-07T02:39:38;100142.63;;;13.29;94.62
77360;BME280;66426;51.454;7.266;2023-05-07T02:40:39;100140.91;;;13.28;94.69
77360;BME280;66426;51.454;7.266;2023-05-07T02:41:40;100135.09;;;13.34;94.74
77360;BME280;66426;51.454;7.266;2023-05-07T02:42:41;100133.53;;;13.30;94.76
77360;BME280;66426;51.454;7.266;2023-05-07T02:43:42;100135.09;;;13.34;94.60
77360;BME280;66426;51.454;7.266;2023-05-07T02:44:43;100140.78;;;13.30;94.84
77360;BME280;66426;51.454;7.266;2023-05-07T02:45:44;100132.16;;;13.23;95.05
77360;BME280;66426;51.454;7.266;2023-05-07T02:46:45;100136.88;;;13.20;95.05
77360;BME280;66426;51.454;7.266;2023-05-07T02:47:46;100135.03;;;13.20;95.28
77360;BME280;66426;51.454;7.266;2023-05-07T02:48:47;100139.50;;;13.21;95.44
77360;BME280;66426;51.454;7.266;2023-05-07T02:49:48;100136.09;;;13.17;95.11
77360;BME280;66426;51.454;7.266;2023-05-07T02:50:49;100139.78;;;13.16;95.38
77360;BME280;66426;51.454;7.266;2023-05-07T02:51:49;100139.38;;;13.23;95.28
77360;BME280;66426;51.454;7.266;2023-05-07T02:52:50;100138.44;;;13.24;95.36
77360;BME280;66426;51.454;7.266;2023-05-07T02:53:51;100133.81;;;13.26;95.06
77360;BME280;66426;51.454;7.266;2023-05-07T02:54:53;100135.81;;;13.22;95.15
77360;BME280;66426;51.454;7.266;2023-05-07T02:55:55;100142.88;;;13.25;95.07
77360;BME280;66426;51.454;7.266;2023-05-07T02:56:56;100136.59;;;13.24;95.23
77360;BME280;66426;51.454;7.266;2023-05-07T02:57:58;100136.00;;;13.19;95.17
77360;BME280;66426;51.454;7.266;2023-05-07T02:58:59;100131.88;;;13.13;95.55
77360;BME280;66426;51.454;7.266;2023-05-07T02:59:59;100131.66;;;13.16;95.52
77360;BME280;66426;51.454;7.266;2023-05-07T03:01:10;100137.94;;;13.17;95.63
77360;BME280;66426;51.454;7.266;2023-05-07T03:02:12;100140.06;;;13.12;95.56
77360;BME280;66426;51.454;7.266;2023-05-07T03:03:13;100141.81;;;13.13;95.66
77360;BME280;66426;51.454;7.266;2023-05-07T03:04:13;100138.22;;;13.12;95.93
77360;BME280;66426;51.454;7.266;2023-05-07T03:05:14;100133.97;;;13.08;95.94
77360;BME280;66426;51.454;7.266;2023-05-07T03:06:15;100139.41;;;13.08;95.84
77360;BME280;66426;51.454;7.266;2023-05-07T03:07:16;100135.91;;;13.06;95.90
77360;BME280;66426;51.454;7.266;2023-05-07T03:08:17;100134.25;;;13.04;96.14
77360;BME280;66426;51.454;7.266;2023-05-07T03:09:18;100135.63;;;13.11;96.08
77360;BME280;66426;51.454;7.266;2023-05-07T03:10:21;100134.06;;;13.07;95.91
77360;BME280;66426;51.454;7.266;2023-05-07T03:11:22;100132.34;;;13.06;96.08
77360;BME280;66426;51.454;7.266;2023-05-07T03:12:23;100132.06;;;13.10;95.77
77360;BME280;66426;51.454;7.266;2023-05-07T03:13:23;100136.56;;;13.10;95.82
77360;BME280;66426;51.454;7.266;2023-05-07T03:14:24;100137.47;;;13.10;95.99
77360;BME280;66426;51.454;7.266;2023-05-07T03:15:25;100127.59;;;13.09;95.73
77360;BME280;66426;51.454;7.266;2023-05-07T03:16:26;100141.13;;;13.09;95.60
77360;BME280;66426;51.454;7.266;2023-05-07T03:17:27;100133.19;;;13.06;95.85
77360;BME280;66426;51.454;7.266;2023-05-07T03:18:28;100142.09;;;13.08;95.87
77360;BME280;66426;51.454;7.266;2023-05-07T03:19:29;100144.63;;;13.26;95.30
77360;BME280;66426;51.454;7.266;2023-05-07T03:20:31;100142.53;;;13.31;94.76
77360;BME280;66426;51.454;7.266;2023-05-07T03:21:32;100149.03;;;13.28;94.70
77360;BME280;66426;51.454;7.266;2023-05-07T03:22:34;100146.31;;;13.28;94.71
77360;BME280;66426;51.454;7.266;2023-05-07T03:23:35;100141.34;;;13.21;94.97
77360;BME280;66426;51.454;7.266;2023-05-07T03:24:36;100146.63;;;13.22;94.87
77360;BME280;66426;51.454;7.266;2023-05-07T03:25:38;100142.50;;;13.16;95.07
77360;BME280;66426;51.454;7.266;2023-05-07T03:26:39;100135.16;;;13.19;95.18
77360;BME280;66426;51.454;7.266;2023-05-07T03:27:40;100139.69;;;13.18;95.26
77360;BME280;66426;51.454;7.266;2023-05-07T03:28:42;100138.81;;;13.17;95.45
77360;BME280;66426;51.454;7.266;2023-05-07T03:29:43;100138.22;;;13.12;95.70
77360;BME280;66426;51.454;7.266;2023-05-07T03:30:44;100135.72;;;13.09;95.66
77360;BME280;66426;51.454;7.266;2023-05-07T03:31:45;100135.03;;;13.06;96.29
77360;BME280;66426;51.454;7.266;2023-05-07T03:32:45;100142.09;;;13.08;95.84
77360;BME280;66426;51.454;7.266;2023-05-07T03:33:50;100136.69;;;13.08;95.97
77360;BME280;66426;51.454;7.266;2023-05-07T03:34:51;100138.41;;;13.09;95.92
77360;BME280;66426;51.454;7.266;2023-05-07T03:35:52;100136.28;;;13.14;95.93
77360;BME280;66426;51.454;7.266;2023-05-07T03:36:53;100142.09;;;13.23;95.46
77360;BME280;66426;51.454;7.266;2023-05-07T03:37:53;100147.22;;;13.13;95.17
77360;BME280;66426;51.454;7.266;2023-05-07T03:38:54;100146.56;;;13.24;94.84
77360;BME280;66426;51.454;7.266;2023-05-07T03:39:55;100150.66;;;13.31;94.81
77360;BME280;66426;51.454;7.266;2023-05-07T03:40:57;100146.03;;;13.33;93.88
77360;BME280;66426;51.454;7.266;2023-05-07T03:41:58;100153.53;;;13.28;94.02
77360;BME280;66426;51.454;7.266;2023-05-07T03:42:59;100142.34;;;13.34;93.98
77360;BME280;66426;51.454;7.266;2023-05-07T03:44:00;100145.84;;;13.36;93.74
77360;BME280;66426;51.454;7.266;2023-05-07T03:45:01;100137.00;;;13.32;93.65
77360;BME280;66426;51.454;7.266;2023-05-07T03:46:02;100146.59;;;13.38;93.84
77360;BME280;66426;51.454;7.266;2023-05-07T03:47:03;100139.69;;;13.18;94.53
77360;BME280;66426;51.454;7.266;2023-05-07T03:48:04;100144.78;;;13.23;94.40
77360;BME280;66426;51.454;7.266;2023-05-07T03:49:05;100139.84;;;13.31;94.51
77360;BME280;66426;51.454;7.266;2023-05-07T03:50:06;100143.69;;;13.41;93.92
77360;BME280;66426;51.454;7.266;2023-05-07T03:51:07;100144.09;;;13.49;93.89
77360;BME280;66426;51.454;7.266;2023-05-07T03:52:08;100144.38;;;13.45;93.92
77360;BME280;66426;51.454;7.266;2023-05-07T03:53:09;100142.25;;;13.35;94.38
77360;BME280;66426;51.454;7.266;2023-05-07T03:54:10;100142.53;;;13.31;94.83
77360;BME280;66426;51.454;7.266;2023-05-07T03:55:11;100144.78;;;13.23;95.20
77360;BME280;66426;51.454;7.266;2023-05-07T03:56:13;100147.50;;;13.23;95.56
77360;BME280;66426;51.454;7.266;2023-05-07T03:57:14;100147.22;;;13.13;96.08
77360;BME280;66426;51.454;7.266;2023-05-07T03:58:16;100141.91;;;13.11;96.32
77360;BME280;66426;51.454;7.266;2023-05-07T03:59:16;100153.00;;;13.07;96.83
77360;BME280;66426;51.454;7.266;2023-05-07T04:00:17;100147.13;;;13.14;96.70
77360;BME280;66426;51.454;7.266;2023-05-07T04:01:20;100151.75;;;13.12;96.69
77360;BME280;66426;51.454;7.266;2023-05-07T04:02:21;100156.22;;;13.13;96.77
77360;BME280;66426;51.454;7.266;2023-05-07T04:03:22;100151.84;;;13.11;96.86
77360;BME280;66426;51.454;7.266;2023-05-07T04:04:23;100157.84;;;13.16;96.87
77360;BME280;66426;51.454;7.266;2023-05-07T04:05:25;100146.06;;;13.17;96.83
77360;BME280;66426;51.454;7.266;2023-05-07T04:06:25;100146.75;;;13.21;96.67
77360;BME280;66426;51.454;7.266;2023-05-07T04:07:26;100153.69;;;13.10;96.47
77360;BME280;66426;51.454;7.266;2023-05-07T04:08:27;100145.97;;;13.19;97.09
77360;BME280;66426;51.454;7.266;2023-05-07T04:09:28;100154.16;;;13.17;96.62
77360;BME280;66426;51.454;7.266;2023-05-07T04:10:29;100152.91;;;13.23;96.24
77360;BME280;66426;51.454;7.266;2023-05-07T04:11:31;100152.75;;;13.26;95.61
77360;BME280;66426;51.454;7.266;2023-05-07T04:12:33;100161.69;;;13.12;96.28
77360;BME280;66426;51.454;7.266;2023-05-07T04:13:34;100162.56;;;13.12;96.76
77360;BME280;66426;51.454;7.266;2023-05-07T04:14:35;100157.53;;;13.06;97.01
77360;BME280;66426;51.454;7.266;2023-05-07T04:15:36;100158.50;;;13.05;97.31
77360;BME280;66426;51.454;7.266;2023-05-07T04:16:37;100158.81;;;13.15;97.32
77360;BME280;66426;51.454;7.266;2023-05-07T04:17:38;100157.16;;;13.12;97.11
77360;BME280;66426;51.454;7.266;2023-05-07T04:18:39;100157.53;;;13.06;97.26
77360;BME280;66426;51.454;7.266;2023-05-07T04:19:40;100157.81;;;13.02;97.20
77360;BME280;66426;51.454;7.266;2023-05-07T04:20:45;100158.59;;;13.04;97.17
77360;BME280;66426;51.454;7.266;2023-05-07T04:21:46;100152.34;;;13.03;97.12
77360;BME280;66426;51.454;7.266;2023-05-07T04:22:47;100157.47;;;13.22;97.31
77360;BME280;66426;51.454;7.266;2023-05-07T04:23:48;100163.56;;;13.26;96.61
77360;BME280;66426;51.454;7.266;2023-05-07T04:24:50;100152.84;;;13.24;96.43
77360;BME280;66426;51.454;7.266;2023-05-07T04:25:51;100156.50;;;13.23;96.33
77360;BME280;66426;51.454;7.266;2023-05-07T04:26:53;100158.63;;;13.18;96.39
77360;BME280;66426;51.454;7.266;2023-05-07T04:27:55;100159.75;;;13.00;96.61
77360;BME280;66426;51.454;7.266;2023-05-07T04:28:56;100154.25;;;13.01;97.35
77360;BME280;66426;51.454;7.266;2023-05-07T04:29:59;100162.63;;;12.97;97.28
77360;BME280;66426;51.454;7.266;2023-05-07T04:31:01;100157.16;;;12.98;97.74
77360;BME280;66426;51.454;7.266;2023-05-07T04:32:02;100161.78;;;12.96;97.78
77360;BME280;66426;51.454;7.266;2023-05-07T04:33:03;100161.00;;;12.94;97.82
77360;BME280;66426;51.454;7.266;2023-05-07T04:34:04;100158.28;;;12.94;97.78
77360;BME280;66426;51.454;7.266;2023-05-07T04:35:05;100163.03;;;12.90;97.64
77360;BME280;66426;51.454;7.266;2023-05-07T04:36:07;100168.13;;;12.95;98.06
77360;BME280;66426;51.454;7.266;2023-05-07T04:37:08;100166.00;;;13.00;97.93
77360;BME280;66426;51.454;7.266;2023-05-07T04:38:09;100162.16;;;13.04;97.89
77360;BME280;66426;51.454;7.266;2023-05-07T04:39:10;100166.78;;;13.02;97.61
77360;BME280;66426;51.454;7.266;2023-05-07T04:40:11;100166.91;;;13.01;97.57
77360;BME280;66426;51.454;7.266;2023-05-07T04:41:12;100173.47;;;12.97;97.67
77360;BME280;66426;51.454;7.266;2023-05-07T04:42:16;100165.25;;;12.98;97.76
77360;BME280;66426;51.454;7.266;2023-05-07T04:43:17;100171.06;;;13.06;97.64
77360;BME280;66426;51.454;7.266;2023-05-07T04:44:18;100167.31;;;13.09;97.10
77360;BME280;66426;51.454;7.266;2023-05-07T04:45:19;100167.03;;;13.13;97.47
77360;BME280;66426;51.454;7.266;2023-05-07T04:46:20;100180.34;;;13.16;97.13
77360;BME280;66426;51.454;7.266;2023-05-07T04:47:21;100169.81;;;13.12;96.87
77360;BME280;66426;51.454;7.266;2023-05-07T04:48:22;100171.66;;;13.11;96.52
77360;BME280;66426;51.454;7.266;2023-05-07T04:49:23;100168.88;;;13.13;97.12
77360;BME280;66426;51.454;7.266;2023-05-07T04:50:24;100175.72;;;13.19;96.34
77360;BME280;66426;51.454;7.266;2023-05-07T04:51:25;100174.88;;;13.18;96.45
77360;BME280;66426;51.454;7.266;2023-05-07T04:52:26;100175.03;;;13.15;96.60
77360;BME280;66426;51.454;7.266;2023-05-07T04:53:27;100174.28;;;13.13;96.76
77360;BME280;66426;51.454;7.266;2023-05-07T04:54:28;100168.09;;;13.11;96.99
77360;BME280;66426;51.454;7.266;2023-05-07T04:55:29;100170.78;;;13.11;97.08
77360;BME280;66426;51.454;7.266;2023-05-07T04:56:30;100173.56;;;13.09;97.25
77360;BME280;66426;51.454;7.266;2023-05-07T04:57:32;100171.75;;;13.10;97.11
77360;BME280;66426;51.454;7.266;2023-05-07T04:58:33;100167.09;;;13.12;97.36
77360;BME280;66426;51.454;7.266;2023-05-07T04:59:34;100173.66;;;13.08;96.94
77360;BME280;66426;51.454;7.266;2023-05-07T05:00:35;100169.94;;;13.10;97.35
77360;BME280;66426;51.454;7.266;2023-05-07T05:01:36;100176.88;;;13.14;97.10
77360;BME280;66426;51.454;7.266;2023-05-07T05:02:37;100173.84;;;13.05;97.28
77360;BME280;66426;51.454;7.266;2023-05-07T05:03:38;100175.41;;;13.09;97.50
77360;BME280;66426;51.454;7.266;2023-05-07T05:04:39;100176.69;;;13.17;97.21
77360;BME280;66426;51.454;7.266;2023-05-07T05:05:40;100174.47;;;13.24;97.01
77360;BME280;66426;51.454;7.266;2023-05-07T05:06:41;100173.88;;;13.19;96.81
77360;BME280;66426;51.454;7.266;2023-05-07T05:07:42;100175.63;;;13.20;97.00
77360;BME280;66426;51.454;7.266;2023-05-07T05:08:43;100176.50;;;13.21;97.00
77360;BME280;66426;51.454;7.266;2023-05-07T05:09:44;100172.75;;;13.23;96.76
77360;BME280;66426;51.454;7.266;2023-05-07T05:10:45;100178.16;;;13.23;96.99
77360;BME280;66426;51.454;7.266;2023-05-07T05:11:46;100173.38;;;13.28;96.88
77360;BME280;66426;51.454;7.266;2023-05-07T05:12:48;100180.44;;;13.31;96.33
77360;BME280;66426;51.454;7.266;2023-05-07T05:13:49;100180.75;;;13.25;96.44
77360;BME280;66426;51.454;7.266;2023-05-07T05:14:50;100183.56;;;13.23;96.89
77360;BME280;66426;51.454;7.266;2023-05-07T05:15:51;100180.66;;;13.26;96.57
77360;BME280;66426;51.454;7.266;2023-05-07T05:16:52;100186.16;;;13.25;96.31
77360;BME280;66426;51.454;7.266;2023-05-07T05:17:53;100185.22;;;13.26;96.67
77360;BME280;66426;51.454;7.266;2023-05-07T05:18:54;100183.00;;;13.32;96.39
77360;BME280;66426;51.454;7.266;2023-05-07T05:19:55;100180.63;;;13.42;96.09
77360;BME280;66426;51.454;7.266;2023-05-07T05:20:56;100189.13;;;13.36;95.60